N1SD KLAX-KSAN
Flight info
| Callsign | N1SD |
|---|---|
| Flight time | 0h 57m |
| Altitude | VFR |
| Route | |
| Aircraft | EC14/L-VGD/C |
Departure
| Time | 2026-04-25 21:29 |
|---|---|
| Airport | Los Angeles International Airport (KLAX) |
Arrival
| Time | 2026-04-25 22:26 |
|---|---|
| Airport | San Diego International Airport (KSAN) |
| Time | Latitude | Longitude | Altitude | Speed | Heading |
|---|---|---|---|---|---|
| 2026-04-25 21:29 | 34.04337 | -118.27301 | 730 ft | 86 kts | 218° |
| 2026-04-25 21:29 | 34.03815 | -118.27288 | 958 ft | 77 kts | 144° |
| 2026-04-25 21:29 | 34.03456 | -118.26655 | 870 ft | 111 kts | 129° |
| 2026-04-25 21:29 | 34.02964 | -118.25782 | 799 ft | 130 kts | 124° |
| 2026-04-25 21:30 | 34.02525 | -118.24833 | 860 ft | 133 kts | 122° |
| 2026-04-25 21:30 | 34.02475 | -118.23717 | 840 ft | 137 kts | 64° |
| 2026-04-25 21:30 | 34.02852 | -118.22743 | 936 ft | 118 kts | 97° |
| 2026-04-25 21:30 | 34.02630 | -118.22360 | 1100 ft | 82 kts | 178° |
| 2026-04-25 21:31 | 34.01864 | -118.22850 | 1012 ft | 102 kts | 210° |
| 2026-04-25 21:31 | 34.01128 | -118.22986 | 863 ft | 115 kts | 187° |
| 2026-04-25 21:31 | 34.00326 | -118.23040 | 948 ft | 109 kts | 183° |
| 2026-04-25 21:31 | 33.99624 | -118.22901 | 969 ft | 99 kts | 167° |
| 2026-04-25 21:32 | 33.98985 | -118.22697 | 967 ft | 98 kts | 173° |
| 2026-04-25 21:32 | 33.98275 | -118.22599 | 992 ft | 101 kts | 179° |
| 2026-04-25 21:32 | 33.97527 | -118.22609 | 967 ft | 111 kts | 187° |
| 2026-04-25 21:32 | 33.96805 | -118.22711 | 974 ft | 104 kts | 189° |
| 2026-04-25 21:33 | 33.96093 | -118.22814 | 981 ft | 101 kts | 189° |
| 2026-04-25 21:33 | 33.95394 | -118.22927 | 990 ft | 101 kts | 189° |
| 2026-04-25 21:33 | 33.94687 | -118.22952 | 1092 ft | 103 kts | 181° |
| 2026-04-25 21:33 | 33.93979 | -118.22841 | 1233 ft | 103 kts | 176° |
| 2026-04-25 21:34 | 33.93296 | -118.22539 | 1316 ft | 110 kts | 154° |
| 2026-04-25 21:34 | 33.92792 | -118.21821 | 1444 ft | 114 kts | 128° |
| 2026-04-25 21:34 | 33.92423 | -118.20960 | 1583 ft | 118 kts | 123° |
| 2026-04-25 21:34 | 33.92062 | -118.20086 | 1633 ft | 118 kts | 122° |
| 2026-04-25 21:35 | 33.91686 | -118.19221 | 1625 ft | 113 kts | 125° |
| 2026-04-25 21:35 | 33.91123 | -118.18636 | 1617 ft | 107 kts | 162° |
| 2026-04-25 21:35 | 33.90416 | -118.18591 | 1629 ft | 101 kts | 193° |
| 2026-04-25 21:35 | 33.89751 | -118.18780 | 1626 ft | 99 kts | 199° |
| 2026-04-25 21:36 | 33.89076 | -118.18966 | 1557 ft | 99 kts | 195° |
| 2026-04-25 21:36 | 33.88393 | -118.19155 | 1529 ft | 104 kts | 197° |
| 2026-04-25 21:36 | 33.87709 | -118.19349 | 1522 ft | 98 kts | 197° |
| 2026-04-25 21:36 | 33.87050 | -118.19625 | 1523 ft | 100 kts | 202° |
| 2026-04-25 21:37 | 33.86409 | -118.19942 | 1537 ft | 100 kts | 203° |
| 2026-04-25 21:37 | 33.85970 | -118.20095 | 1531 ft | 99 kts | 194° |
| 2026-04-25 21:37 | 33.85066 | -118.20360 | 1528 ft | 102 kts | 195° |
| 2026-04-25 21:37 | 33.84365 | -118.20559 | 1538 ft | 102 kts | 194° |
| 2026-04-25 21:38 | 33.83655 | -118.20689 | 1527 ft | 105 kts | 189° |
| 2026-04-25 21:38 | 33.82934 | -118.20684 | 1524 ft | 100 kts | 182° |
| 2026-04-25 21:38 | 33.82228 | -118.20659 | 1533 ft | 104 kts | 181° |
| 2026-04-25 21:38 | 33.81489 | -118.20638 | 1547 ft | 105 kts | 180° |
| 2026-04-25 21:39 | 33.80748 | -118.20622 | 1534 ft | 105 kts | 180° |
| 2026-04-25 21:39 | 33.80020 | -118.20596 | 1532 ft | 107 kts | 181° |
| 2026-04-25 21:39 | 33.79292 | -118.20566 | 1521 ft | 103 kts | 182° |
| 2026-04-25 21:39 | 33.78559 | -118.20535 | 1533 ft | 109 kts | 181° |
| 2026-04-25 21:40 | 33.77810 | -118.20493 | 1524 ft | 106 kts | 182° |
| 2026-04-25 21:40 | 33.77087 | -118.20326 | 1526 ft | 103 kts | 165° |
| 2026-04-25 21:40 | 33.76514 | -118.19733 | 1537 ft | 116 kts | 130° |
| 2026-04-25 21:40 | 33.76083 | -118.18911 | 1529 ft | 118 kts | 121° |
| 2026-04-25 21:41 | 33.75838 | -118.17950 | 1532 ft | 119 kts | 107° |
| 2026-04-25 21:41 | 33.75634 | -118.16995 | 1533 ft | 120 kts | 107° |
| 2026-04-25 21:41 | 33.75432 | -118.16015 | 1525 ft | 118 kts | 107° |
| 2026-04-25 21:41 | 33.75253 | -118.15055 | 1531 ft | 119 kts | 108° |
| 2026-04-25 21:42 | 33.75074 | -118.14092 | 1528 ft | 117 kts | 108° |
| 2026-04-25 21:42 | 33.74869 | -118.13155 | 1529 ft | 119 kts | 116° |
| 2026-04-25 21:42 | 33.74459 | -118.12350 | 1502 ft | 115 kts | 129° |
| 2026-04-25 21:42 | 33.74004 | -118.11560 | 1505 ft | 113 kts | 130° |
| 2026-04-25 21:43 | 33.73563 | -118.10796 | 1503 ft | 113 kts | 130° |
| 2026-04-25 21:43 | 33.73112 | -118.10027 | 1503 ft | 111 kts | 129° |
| 2026-04-25 21:43 | 33.72661 | -118.09261 | 1504 ft | 112 kts | 129° |
| 2026-04-25 21:43 | 33.72208 | -118.08496 | 1503 ft | 113 kts | 129° |
| 2026-04-25 21:44 | 33.71745 | -118.07714 | 1504 ft | 115 kts | 128° |
| 2026-04-25 21:44 | 33.71270 | -118.06934 | 1501 ft | 115 kts | 129° |
| 2026-04-25 21:44 | 33.70388 | -118.05476 | 1506 ft | 110 kts | 129° |
| 2026-04-25 21:45 | 33.69930 | -118.04718 | 1502 ft | 113 kts | 130° |
| 2026-04-25 21:45 | 33.69635 | -118.04209 | 1502 ft | 112 kts | 129° |
| 2026-04-25 21:45 | 33.69047 | -118.03211 | 1503 ft | 109 kts | 130° |
| 2026-04-25 21:45 | 33.68554 | -118.02522 | 1507 ft | 109 kts | 136° |
| 2026-04-25 21:46 | 33.68033 | -118.01854 | 1505 ft | 111 kts | 137° |
| 2026-04-25 21:46 | 33.67513 | -118.01181 | 1505 ft | 108 kts | 137° |
| 2026-04-25 21:46 | 33.67010 | -118.00525 | 1528 ft | 108 kts | 138° |
| 2026-04-25 21:46 | 33.66505 | -117.99831 | 1539 ft | 113 kts | 136° |
| 2026-04-25 21:47 | 33.65981 | -117.99138 | 1536 ft | 112 kts | 137° |
| 2026-04-25 21:47 | 33.65458 | -117.98434 | 1541 ft | 112 kts | 136° |
| 2026-04-25 21:47 | 33.64936 | -117.97753 | 1546 ft | 110 kts | 137° |
| 2026-04-25 21:47 | 33.64428 | -117.97083 | 1540 ft | 107 kts | 136° |
| 2026-04-25 21:48 | 33.63927 | -117.96427 | 1538 ft | 107 kts | 137° |
| 2026-04-25 21:48 | 33.63419 | -117.95752 | 1540 ft | 111 kts | 137° |
| 2026-04-25 21:48 | 33.62913 | -117.95058 | 1540 ft | 111 kts | 137° |
| 2026-04-25 21:48 | 33.62386 | -117.94361 | 1542 ft | 112 kts | 137° |
| 2026-04-25 21:49 | 33.61852 | -117.93675 | 1543 ft | 112 kts | 135° |
| 2026-04-25 21:49 | 33.61326 | -117.93024 | 1539 ft | 106 kts | 138° |
| 2026-04-25 21:49 | 33.60830 | -117.92353 | 1541 ft | 110 kts | 136° |
| 2026-04-25 21:49 | 33.60330 | -117.91665 | 1532 ft | 110 kts | 138° |
| 2026-04-25 21:50 | 33.59814 | -117.90970 | 1538 ft | 113 kts | 136° |
| 2026-04-25 21:50 | 33.59288 | -117.90277 | 1541 ft | 112 kts | 136° |
| 2026-04-25 21:50 | 33.58781 | -117.89591 | 1540 ft | 111 kts | 135° |
| 2026-04-25 21:50 | 33.58440 | -117.89125 | 1538 ft | 109 kts | 136° |
| 2026-04-25 21:51 | 33.57808 | -117.88169 | 1545 ft | 115 kts | 131° |
| 2026-04-25 21:51 | 33.57298 | -117.87445 | 1537 ft | 112 kts | 149° |
| 2026-04-25 21:51 | 33.56589 | -117.87151 | 1543 ft | 104 kts | 172° |
| 2026-04-25 21:51 | 33.55906 | -117.86926 | 1533 ft | 103 kts | 167° |
| 2026-04-25 21:52 | 33.55220 | -117.86581 | 1543 ft | 108 kts | 160° |
| 2026-04-25 21:52 | 33.54550 | -117.86190 | 1534 ft | 106 kts | 159° |
| 2026-04-25 21:52 | 33.53908 | -117.85735 | 1545 ft | 107 kts | 153° |
| 2026-04-25 21:52 | 33.53308 | -117.85227 | 1404 ft | 101 kts | 144° |
| 2026-04-25 21:53 | 33.52708 | -117.84713 | 1362 ft | 107 kts | 151° |
| 2026-04-25 21:53 | 33.52119 | -117.84193 | 1413 ft | 111 kts | 152° |
| 2026-04-25 21:53 | 33.51515 | -117.83647 | 1503 ft | 105 kts | 146° |
| 2026-04-25 21:53 | 33.50938 | -117.83104 | 1497 ft | 104 kts | 147° |
| 2026-04-25 21:54 | 33.50367 | -117.82569 | 1493 ft | 107 kts | 147° |
| 2026-04-25 21:54 | 33.49772 | -117.82016 | 1498 ft | 107 kts | 145° |
| 2026-04-25 21:54 | 33.49189 | -117.81469 | 1503 ft | 105 kts | 146° |
| 2026-04-25 21:54 | 33.48617 | -117.80927 | 1497 ft | 106 kts | 147° |
| 2026-04-25 21:55 | 33.48030 | -117.80385 | 1491 ft | 108 kts | 150° |
| 2026-04-25 21:55 | 33.47427 | -117.79871 | 1493 ft | 106 kts | 151° |
| 2026-04-25 21:55 | 33.46824 | -117.79370 | 1492 ft | 106 kts | 150° |
| 2026-04-25 21:55 | 33.46207 | -117.78857 | 1499 ft | 108 kts | 149° |
| 2026-04-25 21:56 | 33.45591 | -117.78345 | 1491 ft | 108 kts | 153° |
| 2026-04-25 21:56 | 33.45169 | -117.78002 | 1495 ft | 110 kts | 153° |
| 2026-04-25 21:56 | 33.44358 | -117.77335 | 1496 ft | 104 kts | 151° |
| 2026-04-25 21:56 | 33.43753 | -117.76835 | 1491 ft | 109 kts | 152° |
| 2026-04-25 21:57 | 33.43121 | -117.76322 | 1492 ft | 111 kts | 152° |
| 2026-04-25 21:57 | 33.42495 | -117.75816 | 1499 ft | 108 kts | 151° |
| 2026-04-25 21:57 | 33.41876 | -117.75310 | 1497 ft | 109 kts | 151° |
| 2026-04-25 21:57 | 33.41257 | -117.74803 | 1493 ft | 108 kts | 151° |
| 2026-04-25 21:58 | 33.40624 | -117.74296 | 1493 ft | 112 kts | 152° |
| 2026-04-25 21:58 | 33.39985 | -117.73783 | 1496 ft | 109 kts | 151° |
| 2026-04-25 21:58 | 33.39361 | -117.73282 | 1496 ft | 109 kts | 151° |
| 2026-04-25 21:58 | 33.38723 | -117.72773 | 1497 ft | 112 kts | 151° |
| 2026-04-25 21:59 | 33.38082 | -117.72259 | 1500 ft | 112 kts | 152° |
| 2026-04-25 21:59 | 33.37442 | -117.71746 | 1500 ft | 110 kts | 152° |
| 2026-04-25 21:59 | 33.36810 | -117.71235 | 1502 ft | 110 kts | 152° |
| 2026-04-25 22:00 | 33.35615 | -117.70274 | 1497 ft | 109 kts | 153° |
| 2026-04-25 22:00 | 33.34981 | -117.69771 | 1493 ft | 111 kts | 152° |
| 2026-04-25 22:00 | 33.34347 | -117.69263 | 1496 ft | 110 kts | 153° |
| 2026-04-25 22:00 | 33.33706 | -117.68752 | 1492 ft | 111 kts | 152° |
| 2026-04-25 22:01 | 33.33065 | -117.68240 | 1505 ft | 110 kts | 151° |
| 2026-04-25 22:01 | 33.32435 | -117.67733 | 1500 ft | 109 kts | 151° |
| 2026-04-25 22:01 | 33.31793 | -117.67221 | 1499 ft | 113 kts | 152° |
| 2026-04-25 22:01 | 33.31572 | -117.67046 | 1501 ft | 113 kts | 152° |
| 2026-04-25 22:02 | 33.30498 | -117.66185 | 1503 ft | 110 kts | 151° |
| 2026-04-25 22:02 | 33.30078 | -117.65846 | 1499 ft | 110 kts | 151° |
| 2026-04-25 22:02 | 33.29434 | -117.65328 | 1497 ft | 112 kts | 151° |
| 2026-04-25 22:02 | 33.28784 | -117.64807 | 1496 ft | 113 kts | 152° |
| 2026-04-25 22:03 | 33.28132 | -117.64285 | 1502 ft | 112 kts | 153° |
| 2026-04-25 22:03 | 33.27479 | -117.63759 | 1501 ft | 112 kts | 151° |
| 2026-04-25 22:03 | 33.26847 | -117.63243 | 1492 ft | 110 kts | 150° |
| 2026-04-25 22:03 | 33.26208 | -117.62728 | 1497 ft | 112 kts | 153° |
| 2026-04-25 22:04 | 33.25561 | -117.62207 | 1502 ft | 112 kts | 151° |
| 2026-04-25 22:04 | 33.24915 | -117.61682 | 1496 ft | 112 kts | 150° |
| 2026-04-25 22:04 | 33.24278 | -117.61164 | 1494 ft | 110 kts | 151° |
| 2026-04-25 22:04 | 33.23638 | -117.60650 | 1501 ft | 112 kts | 151° |
| 2026-04-25 22:05 | 33.22988 | -117.60126 | 1503 ft | 111 kts | 149° |
| 2026-04-25 22:05 | 33.22358 | -117.59610 | 1503 ft | 110 kts | 149° |
| 2026-04-25 22:05 | 33.21712 | -117.59089 | 1498 ft | 113 kts | 151° |
| 2026-04-25 22:05 | 33.21067 | -117.58558 | 1507 ft | 111 kts | 148° |
| 2026-04-25 22:06 | 33.20445 | -117.58015 | 1496 ft | 111 kts | 149° |
| 2026-04-25 22:06 | 33.19819 | -117.57473 | 1498 ft | 111 kts | 150° |
| 2026-04-25 22:06 | 33.19196 | -117.56930 | 1499 ft | 111 kts | 149° |
| 2026-04-25 22:06 | 33.18577 | -117.56385 | 1497 ft | 110 kts | 148° |
| 2026-04-25 22:07 | 33.17955 | -117.55842 | 1489 ft | 111 kts | 148° |
| 2026-04-25 22:07 | 33.17543 | -117.55482 | 1501 ft | 111 kts | 149° |
| 2026-04-25 22:07 | 33.16709 | -117.54754 | 1494 ft | 112 kts | 148° |
| 2026-04-25 22:07 | 33.16080 | -117.54204 | 1494 ft | 111 kts | 148° |
| 2026-04-25 22:08 | 33.15462 | -117.53659 | 1505 ft | 109 kts | 146° |
| 2026-04-25 22:08 | 33.14849 | -117.53120 | 1495 ft | 111 kts | 147° |
| 2026-04-25 22:08 | 33.14222 | -117.52571 | 1499 ft | 112 kts | 149° |
| 2026-04-25 22:08 | 33.13597 | -117.52029 | 1499 ft | 110 kts | 149° |
| 2026-04-25 22:09 | 33.12976 | -117.51491 | 1500 ft | 111 kts | 148° |
| 2026-04-25 22:09 | 33.12348 | -117.50950 | 1498 ft | 112 kts | 149° |
| 2026-04-25 22:09 | 33.11716 | -117.50408 | 1501 ft | 111 kts | 149° |
| 2026-04-25 22:09 | 33.11094 | -117.49867 | 1502 ft | 110 kts | 149° |
| 2026-04-25 22:10 | 33.10474 | -117.49327 | 1494 ft | 111 kts | 151° |
| 2026-04-25 22:10 | 33.09857 | -117.48791 | 1499 ft | 109 kts | 150° |
| 2026-04-25 22:10 | 33.09245 | -117.48260 | 1498 ft | 109 kts | 148° |
| 2026-04-25 22:10 | 33.08625 | -117.47725 | 1506 ft | 110 kts | 150° |
| 2026-04-25 22:11 | 33.08008 | -117.47191 | 1504 ft | 110 kts | 151° |
| 2026-04-25 22:11 | 33.07388 | -117.46655 | 1499 ft | 109 kts | 149° |
| 2026-04-25 22:11 | 33.06772 | -117.46120 | 1498 ft | 109 kts | 150° |
| 2026-04-25 22:11 | 33.06167 | -117.45596 | 1496 ft | 108 kts | 150° |
| 2026-04-25 22:12 | 33.05565 | -117.45052 | 1493 ft | 110 kts | 147° |
| 2026-04-25 22:12 | 33.04973 | -117.44467 | 1496 ft | 110 kts | 145° |
| 2026-04-25 22:12 | 33.04388 | -117.43879 | 1498 ft | 111 kts | 145° |
| 2026-04-25 22:12 | 33.04001 | -117.43489 | 1506 ft | 108 kts | 145° |
| 2026-04-25 22:13 | 33.03223 | -117.42704 | 1501 ft | 109 kts | 145° |
| 2026-04-25 22:13 | 33.02626 | -117.42162 | 1496 ft | 108 kts | 153° |
| 2026-04-25 22:13 | 33.01984 | -117.41717 | 1505 ft | 105 kts | 156° |
| 2026-04-25 22:13 | 33.01340 | -117.41285 | 1500 ft | 106 kts | 157° |
| 2026-04-25 22:14 | 33.00689 | -117.40856 | 1501 ft | 108 kts | 156° |
| 2026-04-25 22:14 | 33.00033 | -117.40423 | 1498 ft | 107 kts | 156° |
| 2026-04-25 22:14 | 32.99384 | -117.39992 | 1489 ft | 108 kts | 156° |
| 2026-04-25 22:14 | 32.98726 | -117.39559 | 1496 ft | 107 kts | 155° |
| 2026-04-25 22:15 | 32.98060 | -117.39184 | 1492 ft | 106 kts | 160° |
| 2026-04-25 22:15 | 32.97382 | -117.38834 | 1493 ft | 108 kts | 161° |
| 2026-04-25 22:15 | 32.96712 | -117.38484 | 1489 ft | 104 kts | 161° |
| 2026-04-25 22:16 | 32.95360 | -117.37773 | 1487 ft | 106 kts | 158° |
| 2026-04-25 22:16 | 32.94688 | -117.37417 | 1491 ft | 105 kts | 161° |
| 2026-04-25 22:16 | 32.94026 | -117.37074 | 1492 ft | 106 kts | 162° |
| 2026-04-25 22:16 | 32.93334 | -117.36718 | 1497 ft | 108 kts | 160° |
| 2026-04-25 22:17 | 32.92651 | -117.36369 | 1495 ft | 105 kts | 162° |
| 2026-04-25 22:17 | 32.91970 | -117.36024 | 1498 ft | 108 kts | 161° |
| 2026-04-25 22:17 | 32.91283 | -117.35675 | 1496 ft | 105 kts | 162° |
| 2026-04-25 22:17 | 32.90606 | -117.35332 | 1497 ft | 109 kts | 163° |
| 2026-04-25 22:18 | 32.89917 | -117.34946 | 1498 ft | 108 kts | 153° |
| 2026-04-25 22:18 | 32.89289 | -117.34471 | 1498 ft | 108 kts | 152° |
| 2026-04-25 22:18 | 32.88655 | -117.33982 | 1501 ft | 108 kts | 152° |
| 2026-04-25 22:18 | 32.88032 | -117.33497 | 1497 ft | 106 kts | 153° |
| 2026-04-25 22:19 | 32.87372 | -117.33116 | 1500 ft | 105 kts | 162° |
| 2026-04-25 22:19 | 32.86692 | -117.32769 | 1504 ft | 106 kts | 161° |
| 2026-04-25 22:19 | 32.86034 | -117.32429 | 1494 ft | 104 kts | 163° |
| 2026-04-25 22:19 | 32.85357 | -117.32084 | 1504 ft | 105 kts | 160° |
| 2026-04-25 22:20 | 32.84714 | -117.31683 | 1498 ft | 103 kts | 155° |
| 2026-04-25 22:20 | 32.84086 | -117.31247 | 1491 ft | 106 kts | 156° |
| 2026-04-25 22:20 | 32.83440 | -117.30801 | 1508 ft | 108 kts | 154° |
| 2026-04-25 22:20 | 32.82794 | -117.30353 | 1517 ft | 106 kts | 155° |
| 2026-04-25 22:21 | 32.82163 | -117.29915 | 1511 ft | 106 kts | 155° |
| 2026-04-25 22:21 | 32.81523 | -117.29474 | 1515 ft | 107 kts | 156° |
| 2026-04-25 22:21 | 32.80882 | -117.29033 | 1518 ft | 105 kts | 155° |
| 2026-04-25 22:21 | 32.80246 | -117.28588 | 1512 ft | 107 kts | 156° |
| 2026-04-25 22:22 | 32.79820 | -117.27961 | 1064 ft | 99 kts | 99° |
| 2026-04-25 22:22 | 32.79581 | -117.27186 | 953 ft | 102 kts | 129° |
| 2026-04-25 22:22 | 32.79117 | -117.26523 | 1007 ft | 114 kts | 118° |
| 2026-04-25 22:22 | 32.78763 | -117.25547 | 829 ft | 135 kts | 116° |
| 2026-04-25 22:23 | 32.78309 | -117.24607 | 833 ft | 132 kts | 122° |
| 2026-04-25 22:23 | 32.77833 | -117.23734 | 874 ft | 116 kts | 128° |
| 2026-04-25 22:23 | 32.77421 | -117.22945 | 936 ft | 111 kts | 130° |
| 2026-04-25 22:23 | 32.76932 | -117.22086 | 814 ft | 139 kts | 125° |
| 2026-04-25 22:24 | 32.76409 | -117.21124 | 797 ft | 137 kts | 124° |
| 2026-04-25 22:24 | 32.75821 | -117.20261 | 811 ft | 132 kts | 134° |
| 2026-04-25 22:24 | 32.75143 | -117.19580 | 679 ft | 128 kts | 150° |
| 2026-04-25 22:24 | 32.74350 | -117.19273 | 606 ft | 114 kts | 167° |
| 2026-04-25 22:25 | 32.73673 | -117.19065 | 743 ft | 96 kts | 168° |
| 2026-04-25 22:25 | 32.73005 | -117.18814 | 656 ft | 104 kts | 156° |
| 2026-04-25 22:25 | 32.72505 | -117.18114 | 439 ft | 123 kts | 116° |
| 2026-04-25 22:25 | 32.72137 | -117.17219 | 482 ft | 118 kts | 112° |
| 2026-04-25 22:26 | 32.71840 | -117.16413 | 647 ft | 92 kts | 110° |
| 2026-04-25 22:26 | 32.71569 | -117.15885 | 773 ft | 52 kts | 36° |
| 2026-04-25 22:26 | 32.71519 | -117.15581 | 627 ft | 38 kts | 332° |
| 2026-04-25 22:26 | 32.71735 | -117.15521 | 521 ft | 39 kts | 291° |
| 2026-04-25 22:27 | 32.71805 | -117.15730 | 626 ft | 15 kts | 249° |
| 2026-04-25 22:27 | 32.71800 | -117.15741 | 617 ft | 1 kts | 278° |
| 2026-04-25 22:27 | 32.71800 | -117.15774 | 534 ft | 2 kts | 286° |
| 2026-04-25 22:27 | 32.71808 | -117.15793 | 523 ft | 0 kts | 273° |
| 2026-04-25 22:42 | 32.71799 | -117.15811 | 536 ft | 9 kts | 300° |
| 2026-04-25 22:42 | 32.71747 | -117.15948 | 709 ft | 27 kts | 284° |
| 2026-04-25 22:43 | 32.71657 | -117.16173 | 882 ft | 28 kts | 294° |
| 2026-04-25 22:43 | 32.71561 | -117.16380 | 905 ft | 37 kts | 310° |
| 2026-04-25 22:43 | 32.71498 | -117.16690 | 838 ft | 37 kts | 303° |
| 2026-04-25 22:43 | 32.71560 | -117.16986 | 832 ft | 46 kts | 305° |
| 2026-04-25 22:44 | 32.71911 | -117.17434 | 551 ft | 97 kts | 302° |
| 2026-04-25 22:44 | 32.72318 | -117.18086 | 581 ft | 102 kts | 300° |
| 2026-04-25 22:44 | 32.72940 | -117.18568 | 511 ft | 115 kts | 334° |
| 2026-04-25 22:44 | 32.73720 | -117.18575 | 542 ft | 109 kts | 9° |
| 2026-04-25 22:45 | 32.74186 | -117.18343 | 541 ft | 109 kts | 26° |
| 2026-04-25 22:45 | 32.74752 | -117.17783 | 642 ft | 107 kts | 43° |
| 2026-04-25 22:45 | 32.75408 | -117.16883 | 769 ft | 108 kts | 47° |
| 2026-04-25 22:45 | 32.75898 | -117.16164 | 736 ft | 116 kts | 47° |
| 2026-04-25 22:46 | 32.76158 | -117.15591 | 692 ft | 117 kts | 64° |
| 2026-04-25 22:46 | 32.76503 | -117.14726 | 764 ft | 115 kts | 59° |
| 2026-04-25 22:46 | 32.76879 | -117.13888 | 847 ft | 114 kts | 68° |
| 2026-04-25 22:46 | 32.77331 | -117.13142 | 903 ft | 109 kts | 28° |
| 2026-04-25 22:47 | 32.77999 | -117.12763 | 851 ft | 107 kts | 27° |
| 2026-04-25 22:47 | 32.78577 | -117.12374 | 819 ft | 72 kts | 73° |
| 2026-04-25 22:47 | 32.78721 | -117.11853 | 548 ft | 70 kts | 131° |
| 2026-04-25 22:47 | 32.78644 | -117.11459 | 351 ft | 37 kts | 209° |
| 2026-04-25 22:48 | 32.78425 | -117.11540 | 156 ft | 33 kts | 254° |
| 2026-04-25 22:48 | 32.78405 | -117.11646 | 71 ft | 5 kts | 289° |
| 2026-04-25 22:48 | 32.78410 | -117.11669 | 66 ft | 0 kts | 265° |
| 2026-04-25 22:50 | 32.78411 | -117.11669 | 66 ft | 0 kts | 259° |
| 2026-04-25 22:50 | 32.78416 | -117.11687 | 129 ft | 7 kts | 256° |
| 2026-04-25 22:51 | 32.78418 | -117.11751 | 242 ft | 9 kts | 238° |
| 2026-04-25 22:51 | 32.78409 | -117.11824 | 297 ft | 10 kts | 230° |
| 2026-04-25 22:51 | 32.78437 | -117.11946 | 364 ft | 16 kts | 227° |
| 2026-04-25 22:51 | 32.78429 | -117.12051 | 360 ft | 11 kts | 214° |
| 2026-04-25 22:52 | 32.78368 | -117.12097 | 358 ft | 13 kts | 178° |
| 2026-04-25 22:52 | 32.78275 | -117.12215 | 453 ft | 24 kts | 204° |
| 2026-04-25 22:52 | 32.78158 | -117.12413 | 517 ft | 34 kts | 202° |
| 2026-04-25 22:52 | 32.77980 | -117.12631 | 629 ft | 35 kts | 203° |
| 2026-04-25 22:53 | 32.77864 | -117.12819 | 737 ft | 25 kts | 208° |
| 2026-04-25 22:53 | 32.77753 | -117.12968 | 721 ft | 24 kts | 214° |
| 2026-04-25 22:53 | 32.77663 | -117.13136 | 697 ft | 27 kts | 223° |
| 2026-04-25 22:53 | 32.77623 | -117.13396 | 653 ft | 41 kts | 233° |
| 2026-04-25 22:54 | 32.77562 | -117.13756 | 692 ft | 47 kts | 224° |
| 2026-04-25 22:54 | 32.77431 | -117.14105 | 740 ft | 48 kts | 202° |
| 2026-04-25 22:54 | 32.77246 | -117.14484 | 688 ft | 57 kts | 208° |
| 2026-04-25 22:54 | 32.77102 | -117.14952 | 640 ft | 65 kts | 229° |
| 2026-04-25 22:55 | 32.76908 | -117.15529 | 646 ft | 89 kts | 246° |
| 2026-04-25 22:55 | 32.76551 | -117.16244 | 596 ft | 107 kts | 233° |
| 2026-04-25 22:55 | 32.76053 | -117.16929 | 586 ft | 115 kts | 237° |
| 2026-04-25 22:55 | 32.75588 | -117.17712 | 634 ft | 117 kts | 227° |
| 2026-04-25 22:56 | 32.74886 | -117.18196 | 535 ft | 119 kts | 203° |
| 2026-04-25 22:56 | 32.74116 | -117.18539 | 472 ft | 114 kts | 199° |
| 2026-04-25 22:56 | 32.73365 | -117.18768 | 432 ft | 109 kts | 189° |
| 2026-04-25 22:56 | 32.72686 | -117.18469 | 595 ft | 113 kts | 130° |
| 2026-04-25 22:57 | 32.72201 | -117.17715 | 505 ft | 114 kts | 128° |
| 2026-04-25 22:57 | 32.71788 | -117.16945 | 537 ft | 101 kts | 121° |
| 2026-04-25 22:57 | 32.71502 | -117.16379 | 638 ft | 59 kts | 82° |
| 2026-04-25 22:57 | 32.71537 | -117.16014 | 546 ft | 32 kts | 355° |
| 2026-04-25 22:58 | 32.71593 | -117.15786 | 518 ft | 34 kts | 335° |
| 2026-04-25 22:58 | 32.71791 | -117.15707 | 574 ft | 12 kts | 283° |
| 2026-04-25 22:58 | 32.71807 | -117.15769 | 578 ft | 2 kts | 290° |
| 2026-04-25 22:58 | 32.71805 | -117.15791 | 556 ft | 2 kts | 276° |
| 2026-04-25 22:59 | 32.71804 | -117.15797 | 531 ft | 0 kts | 284° |